sensor_id;sensor_type;location;lat;lon;timestamp;P1;durP1;ratioP1;P2;durP2;ratioP2
60038;SDS011;45916;52.734;6.544;2023-12-28T00:00:27;6.88;;;5.70;;
60038;SDS011;45916;52.734;6.544;2023-12-28T00:02:53;7.50;;;5.28;;
60038;SDS011;45916;52.734;6.544;2023-12-28T00:05:18;7.70;;;5.15;;
60038;SDS011;45916;52.734;6.544;2023-12-28T00:07:44;8.02;;;5.72;;
60038;SDS011;45916;52.734;6.544;2023-12-28T00:10:10;8.43;;;5.70;;
60038;SDS011;45916;52.734;6.544;2023-12-28T00:12:36;6.80;;;5.05;;
60038;SDS011;45916;52.734;6.544;2023-12-28T00:15:01;9.15;;;5.38;;
60038;SDS011;45916;52.734;6.544;2023-12-28T00:17:27;7.57;;;4.70;;
60038;SDS011;45916;52.734;6.544;2023-12-28T00:19:53;7.70;;;5.43;;
60038;SDS011;45916;52.734;6.544;2023-12-28T00:22:19;9.10;;;6.40;;
60038;SDS011;45916;52.734;6.544;2023-12-28T00:24:45;9.55;;;6.20;;
60038;SDS011;45916;52.734;6.544;2023-12-28T00:27:10;9.38;;;5.80;;
60038;SDS011;45916;52.734;6.544;2023-12-28T00:29:36;8.10;;;5.28;;
60038;SDS011;45916;52.734;6.544;2023-12-28T00:32:06;9.35;;;6.13;;
60038;SDS011;45916;52.734;6.544;2023-12-28T00:36:57;8.32;;;5.80;;
60038;SDS011;45916;52.734;6.544;2023-12-28T00:39:23;7.97;;;5.57;;
60038;SDS011;45916;52.734;6.544;2023-12-28T00:41:49;7.93;;;5.20;;
60038;SDS011;45916;52.734;6.544;2023-12-28T00:44:14;7.78;;;5.68;;
60038;SDS011;45916;52.734;6.544;2023-12-28T00:46:40;8.77;;;6.53;;
60038;SDS011;45916;52.734;6.544;2023-12-28T00:49:06;8.27;;;6.50;;
60038;SDS011;45916;52.734;6.544;2023-12-28T00:51:33;8.15;;;6.20;;
60038;SDS011;45916;52.734;6.544;2023-12-28T00:53:59;12.68;;;6.53;;
60038;SDS011;45916;52.734;6.544;2023-12-28T00:56:24;9.60;;;5.90;;
60038;SDS011;45916;52.734;6.544;2023-12-28T00:58:50;8.25;;;5.70;;
60038;SDS011;45916;52.734;6.544;2023-12-28T01:01:16;8.65;;;6.45;;
60038;SDS011;45916;52.734;6.544;2023-12-28T01:03:41;9.25;;;6.40;;
60038;SDS011;45916;52.734;6.544;2023-12-28T01:06:07;7.13;;;5.50;;
60038;SDS011;45916;52.734;6.544;2023-12-28T01:08:33;10.13;;;6.38;;
60038;SDS011;45916;52.734;6.544;2023-12-28T01:10:59;8.93;;;6.68;;
60038;SDS011;45916;52.734;6.544;2023-12-28T01:13:25;10.65;;;6.93;;
60038;SDS011;45916;52.734;6.544;2023-12-28T01:15:52;10.32;;;7.07;;
60038;SDS011;45916;52.734;6.544;2023-12-28T01:18:18;10.85;;;6.35;;
60038;SDS011;45916;52.734;6.544;2023-12-28T01:20:45;12.15;;;6.47;;
60038;SDS011;45916;52.734;6.544;2023-12-28T01:23:10;10.57;;;7.40;;
60038;SDS011;45916;52.734;6.544;2023-12-28T01:25:36;8.60;;;6.50;;
60038;SDS011;45916;52.734;6.544;2023-12-28T01:28:02;9.93;;;6.50;;
60038;SDS011;45916;52.734;6.544;2023-12-28T01:30:28;10.27;;;6.72;;
60038;SDS011;45916;52.734;6.544;2023-12-28T01:32:54;8.98;;;6.45;;
60038;SDS011;45916;52.734;6.544;2023-12-28T01:35:19;12.52;;;7.57;;
60038;SDS011;45916;52.734;6.544;2023-12-28T01:37:45;9.52;;;6.38;;
60038;SDS011;45916;52.734;6.544;2023-12-28T01:40:11;11.27;;;6.82;;
60038;SDS011;45916;52.734;6.544;2023-12-28T01:42:37;10.45;;;6.80;;
60038;SDS011;45916;52.734;6.544;2023-12-28T01:45:03;10.15;;;7.32;;
60038;SDS011;45916;52.734;6.544;2023-12-28T01:47:29;10.48;;;6.93;;
60038;SDS011;45916;52.734;6.544;2023-12-28T01:49:55;8.80;;;7.10;;
60038;SDS011;45916;52.734;6.544;2023-12-28T01:52:22;9.68;;;6.93;;
60038;SDS011;45916;52.734;6.544;2023-12-28T01:54:47;11.18;;;7.72;;
60038;SDS011;45916;52.734;6.544;2023-12-28T01:57:14;11.35;;;7.30;;
60038;SDS011;45916;52.734;6.544;2023-12-28T01:59:41;14.70;;;7.75;;
60038;SDS011;45916;52.734;6.544;2023-12-28T02:02:08;9.63;;;6.97;;
60038;SDS011;45916;52.734;6.544;2023-12-28T02:04:34;11.32;;;6.95;;
60038;SDS011;45916;52.734;6.544;2023-12-28T02:07:00;9.27;;;6.93;;
60038;SDS011;45916;52.734;6.544;2023-12-28T02:09:26;11.40;;;7.75;;
60038;SDS011;45916;52.734;6.544;2023-12-28T02:11:52;12.23;;;6.93;;
60038;SDS011;45916;52.734;6.544;2023-12-28T02:14:19;11.35;;;7.40;;
60038;SDS011;45916;52.734;6.544;2023-12-28T02:16:47;10.35;;;6.93;;
60038;SDS011;45916;52.734;6.544;2023-12-28T02:19:24;9.77;;;6.70;;
60038;SDS011;45916;52.734;6.544;2023-12-28T02:21:57;9.32;;;6.88;;
60038;SDS011;45916;52.734;6.544;2023-12-28T02:24:24;13.15;;;8.07;;
60038;SDS011;45916;52.734;6.544;2023-12-28T02:26:50;10.95;;;6.93;;
60038;SDS011;45916;52.734;6.544;2023-12-28T02:29:16;13.70;;;7.22;;
60038;SDS011;45916;52.734;6.544;2023-12-28T02:31:45;10.93;;;6.03;;
60038;SDS011;45916;52.734;6.544;2023-12-28T02:34:29;10.48;;;6.78;;
60038;SDS011;45916;52.734;6.544;2023-12-28T02:37:02;10.68;;;6.72;;
60038;SDS011;45916;52.734;6.544;2023-12-28T02:39:29;13.55;;;6.80;;
60038;SDS011;45916;52.734;6.544;2023-12-28T02:41:55;9.23;;;6.18;;
60038;SDS011;45916;52.734;6.544;2023-12-28T02:44:21;11.13;;;6.72;;
60038;SDS011;45916;52.734;6.544;2023-12-28T02:46:47;11.23;;;7.10;;
60038;SDS011;45916;52.734;6.544;2023-12-28T02:49:13;12.63;;;7.00;;
60038;SDS011;45916;52.734;6.544;2023-12-28T02:51:40;10.13;;;6.90;;
60038;SDS011;45916;52.734;6.544;2023-12-28T02:54:07;11.02;;;6.97;;
60038;SDS011;45916;52.734;6.544;2023-12-28T02:56:33;10.65;;;6.72;;
60038;SDS011;45916;52.734;6.544;2023-12-28T02:58:59;10.88;;;6.07;;
60038;SDS011;45916;52.734;6.544;2023-12-28T03:01:25;10.57;;;6.55;;
60038;SDS011;45916;52.734;6.544;2023-12-28T03:03:50;11.68;;;7.45;;
60038;SDS011;45916;52.734;6.544;2023-12-28T03:06:16;10.55;;;6.72;;
60038;SDS011;45916;52.734;6.544;2023-12-28T03:08:42;11.00;;;5.82;;
60038;SDS011;45916;52.734;6.544;2023-12-28T03:11:07;10.00;;;7.05;;
60038;SDS011;45916;52.734;6.544;2023-12-28T03:13:33;9.65;;;6.10;;
60038;SDS011;45916;52.734;6.544;2023-12-28T03:15:58;9.27;;;6.63;;
60038;SDS011;45916;52.734;6.544;2023-12-28T03:18:24;9.98;;;6.35;;
60038;SDS011;45916;52.734;6.544;2023-12-28T03:20:50;9.95;;;6.00;;
60038;SDS011;45916;52.734;6.544;2023-12-28T03:23:15;9.27;;;5.13;;
60038;SDS011;45916;52.734;6.544;2023-12-28T03:25:41;8.25;;;5.20;;
60038;SDS011;45916;52.734;6.544;2023-12-28T03:28:07;7.80;;;4.65;;
60038;SDS011;45916;52.734;6.544;2023-12-28T03:30:32;10.40;;;5.35;;
60038;SDS011;45916;52.734;6.544;2023-12-28T03:32:58;9.65;;;5.63;;
60038;SDS011;45916;52.734;6.544;2023-12-28T03:35:24;11.25;;;4.72;;
60038;SDS011;45916;52.734;6.544;2023-12-28T03:37:49;9.48;;;4.88;;
60038;SDS011;45916;52.734;6.544;2023-12-28T03:40:15;8.93;;;5.40;;
60038;SDS011;45916;52.734;6.544;2023-12-28T03:42:41;12.75;;;5.32;;
60038;SDS011;45916;52.734;6.544;2023-12-28T03:45:06;8.77;;;5.20;;
60038;SDS011;45916;52.734;6.544;2023-12-28T03:47:32;10.55;;;4.78;;
60038;SDS011;45916;52.734;6.544;2023-12-28T03:49:58;8.07;;;4.40;;
60038;SDS011;45916;52.734;6.544;2023-12-28T03:52:27;7.82;;;4.80;;
60038;SDS011;45916;52.734;6.544;2023-12-28T03:54:55;9.32;;;4.53;;
60038;SDS011;45916;52.734;6.544;2023-12-28T03:57:21;11.85;;;4.90;;
60038;SDS011;45916;52.734;6.544;2023-12-28T03:59:46;8.93;;;4.57;;
60038;SDS011;45916;52.734;6.544;2023-12-28T04:02:12;7.68;;;5.35;;
60038;SDS011;45916;52.734;6.544;2023-12-28T04:04:38;9.50;;;4.78;;
60038;SDS011;45916;52.734;6.544;2023-12-28T04:07:04;8.15;;;4.75;;
60038;SDS011;45916;52.734;6.544;2023-12-28T04:09:32;10.30;;;4.47;;
60038;SDS011;45916;52.734;6.544;2023-12-28T04:11:58;11.82;;;5.47;;
60038;SDS011;45916;52.734;6.544;2023-12-28T04:14:24;9.88;;;4.68;;
60038;SDS011;45916;52.734;6.544;2023-12-28T04:16:50;10.50;;;4.82;;
60038;SDS011;45916;52.734;6.544;2023-12-28T04:19:15;11.63;;;5.43;;
60038;SDS011;45916;52.734;6.544;2023-12-28T04:21:44;11.80;;;5.00;;
60038;SDS011;45916;52.734;6.544;2023-12-28T04:24:10;7.80;;;3.97;;
60038;SDS011;45916;52.734;6.544;2023-12-28T04:26:35;7.85;;;4.60;;
60038;SDS011;45916;52.734;6.544;2023-12-28T04:29:01;8.40;;;4.57;;
60038;SDS011;45916;52.734;6.544;2023-12-28T04:31:27;10.20;;;4.70;;
60038;SDS011;45916;52.734;6.544;2023-12-28T04:33:53;8.10;;;4.30;;
60038;SDS011;45916;52.734;6.544;2023-12-28T04:36:19;11.05;;;4.65;;
60038;SDS011;45916;52.734;6.544;2023-12-28T04:38:44;9.98;;;4.70;;
60038;SDS011;45916;52.734;6.544;2023-12-28T04:41:10;11.13;;;4.15;;
60038;SDS011;45916;52.734;6.544;2023-12-28T04:43:36;9.98;;;4.70;;
60038;SDS011;45916;52.734;6.544;2023-12-28T04:46:03;11.73;;;4.60;;
60038;SDS011;45916;52.734;6.544;2023-12-28T04:48:30;9.55;;;4.10;;
60038;SDS011;45916;52.734;6.544;2023-12-28T04:50:56;10.70;;;4.30;;
60038;SDS011;45916;52.734;6.544;2023-12-28T04:53:21;13.15;;;4.47;;
60038;SDS011;45916;52.734;6.544;2023-12-28T04:55:47;10.40;;;4.00;;
60038;SDS011;45916;52.734;6.544;2023-12-28T04:58:13;12.20;;;4.82;;
60038;SDS011;45916;52.734;6.544;2023-12-28T05:00:39;12.52;;;4.75;;
60038;SDS011;45916;52.734;6.544;2023-12-28T05:03:05;8.88;;;4.07;;
60038;SDS011;45916;52.734;6.544;2023-12-28T05:05:31;11.80;;;4.32;;
60038;SDS011;45916;52.734;6.544;2023-12-28T05:07:57;11.90;;;4.63;;
60038;SDS011;45916;52.734;6.544;2023-12-28T05:10:22;9.80;;;4.05;;
60038;SDS011;45916;52.734;6.544;2023-12-28T05:12:48;9.95;;;4.00;;
60038;SDS011;45916;52.734;6.544;2023-12-28T05:15:14;11.07;;;4.82;;
60038;SDS011;45916;52.734;6.544;2023-12-28T05:17:40;10.02;;;4.03;;
60038;SDS011;45916;52.734;6.544;2023-12-28T05:20:06;10.07;;;3.85;;
60038;SDS011;45916;52.734;6.544;2023-12-28T05:22:32;12.27;;;4.45;;
60038;SDS011;45916;52.734;6.544;2023-12-28T05:24:58;11.65;;;4.43;;
60038;SDS011;45916;52.734;6.544;2023-12-28T05:27:24;8.70;;;3.63;;
60038;SDS011;45916;52.734;6.544;2023-12-28T05:29:49;10.93;;;4.28;;
60038;SDS011;45916;52.734;6.544;2023-12-28T05:32:15;7.75;;;4.18;;
60038;SDS011;45916;52.734;6.544;2023-12-28T05:34:41;12.25;;;4.60;;
60038;SDS011;45916;52.734;6.544;2023-12-28T05:37:06;12.95;;;4.93;;
60038;SDS011;45916;52.734;6.544;2023-12-28T05:39:32;12.57;;;3.90;;
60038;SDS011;45916;52.734;6.544;2023-12-28T05:41:58;10.10;;;4.18;;
60038;SDS011;45916;52.734;6.544;2023-12-28T05:44:23;13.20;;;4.50;;
60038;SDS011;45916;52.734;6.544;2023-12-28T05:46:49;16.02;;;3.85;;
60038;SDS011;45916;52.734;6.544;2023-12-28T05:49:15;10.95;;;4.40;;
60038;SDS011;45916;52.734;6.544;2023-12-28T05:51:40;12.20;;;4.50;;
60038;SDS011;45916;52.734;6.544;2023-12-28T05:54:09;13.73;;;4.25;;
60038;SDS011;45916;52.734;6.544;2023-12-28T05:56:35;14.60;;;4.35;;
60038;SDS011;45916;52.734;6.544;2023-12-28T05:59:01;10.70;;;3.92;;
60038;SDS011;45916;52.734;6.544;2023-12-28T06:01:26;9.70;;;4.28;;
60038;SDS011;45916;52.734;6.544;2023-12-28T06:03:52;11.23;;;3.88;;
60038;SDS011;45916;52.734;6.544;2023-12-28T06:06:19;11.45;;;3.67;;
60038;SDS011;45916;52.734;6.544;2023-12-28T06:08:45;12.85;;;4.93;;
60038;SDS011;45916;52.734;6.544;2023-12-28T06:11:11;11.52;;;4.22;;
60038;SDS011;45916;52.734;6.544;2023-12-28T06:13:37;12.07;;;4.10;;
60038;SDS011;45916;52.734;6.544;2023-12-28T06:16:03;13.25;;;4.35;;
60038;SDS011;45916;52.734;6.544;2023-12-28T06:18:28;16.65;;;4.75;;
60038;SDS011;45916;52.734;6.544;2023-12-28T06:20:54;10.15;;;4.60;;
60038;SDS011;45916;52.734;6.544;2023-12-28T06:23:20;15.60;;;4.75;;
60038;SDS011;45916;52.734;6.544;2023-12-28T06:25:46;11.73;;;4.38;;
60038;SDS011;45916;52.734;6.544;2023-12-28T06:28:12;10.18;;;3.72;;
60038;SDS011;45916;52.734;6.544;2023-12-28T06:30:37;15.40;;;4.93;;
60038;SDS011;45916;52.734;6.544;2023-12-28T06:33:05;9.73;;;4.15;;
60038;SDS011;45916;52.734;6.544;2023-12-28T06:35:31;10.40;;;3.90;;
60038;SDS011;45916;52.734;6.544;2023-12-28T06:37:57;12.82;;;4.63;;
60038;SDS011;45916;52.734;6.544;2023-12-28T06:40:23;12.90;;;3.88;;
60038;SDS011;45916;52.734;6.544;2023-12-28T06:42:48;13.40;;;4.32;;
60038;SDS011;45916;52.734;6.544;2023-12-28T06:45:15;11.20;;;3.72;;
60038;SDS011;45916;52.734;6.544;2023-12-28T06:47:40;10.35;;;3.97;;
60038;SDS011;45916;52.734;6.544;2023-12-28T06:50:06;16.88;;;4.47;;
60038;SDS011;45916;52.734;6.544;2023-12-28T06:52:32;12.20;;;4.20;;
60038;SDS011;45916;52.734;6.544;2023-12-28T06:54:58;13.05;;;4.13;;
60038;SDS011;45916;52.734;6.544;2023-12-28T06:57:24;10.85;;;4.53;;
60038;SDS011;45916;52.734;6.544;2023-12-28T06:59:49;18.20;;;4.72;;
60038;SDS011;45916;52.734;6.544;2023-12-28T07:02:15;15.23;;;3.83;;
60038;SDS011;45916;52.734;6.544;2023-12-28T07:04:41;10.98;;;3.58;;
60038;SDS011;45916;52.734;6.544;2023-12-28T07:07:07;13.13;;;3.88;;
60038;SDS011;45916;52.734;6.544;2023-12-28T07:09:32;13.45;;;4.25;;
60038;SDS011;45916;52.734;6.544;2023-12-28T07:11:58;12.68;;;4.30;;
60038;SDS011;45916;52.734;6.544;2023-12-28T07:14:24;13.63;;;4.57;;
60038;SDS011;45916;52.734;6.544;2023-12-28T07:16:50;15.30;;;4.50;;
60038;SDS011;45916;52.734;6.544;2023-12-28T07:19:16;12.02;;;4.50;;
60038;SDS011;45916;52.734;6.544;2023-12-28T07:21:41;15.07;;;4.93;;
60038;SDS011;45916;52.734;6.544;2023-12-28T07:24:07;14.95;;;4.13;;
60038;SDS011;45916;52.734;6.544;2023-12-28T07:26:33;13.02;;;4.50;;
60038;SDS011;45916;52.734;6.544;2023-12-28T07:28:58;10.52;;;4.05;;
60038;SDS011;45916;52.734;6.544;2023-12-28T07:31:24;12.02;;;4.13;;
60038;SDS011;45916;52.734;6.544;2023-12-28T07:33:51;15.40;;;4.78;;
60038;SDS011;45916;52.734;6.544;2023-12-28T07:36:17;13.65;;;4.65;;
60038;SDS011;45916;52.734;6.544;2023-12-28T07:38:42;16.08;;;4.82;;
60038;SDS011;45916;52.734;6.544;2023-12-28T07:41:09;16.80;;;4.43;;
60038;SDS011;45916;52.734;6.544;2023-12-28T07:43:35;13.68;;;4.28;;
60038;SDS011;45916;52.734;6.544;2023-12-28T07:46:01;14.10;;;4.40;;
60038;SDS011;45916;52.734;6.544;2023-12-28T07:48:27;14.23;;;4.32;;
60038;SDS011;45916;52.734;6.544;2023-12-28T07:50:55;15.43;;;4.47;;
60038;SDS011;45916;52.734;6.544;2023-12-28T07:53:28;15.63;;;4.57;;
60038;SDS011;45916;52.734;6.544;2023-12-28T07:55:54;17.20;;;4.55;;
60038;SDS011;45916;52.734;6.544;2023-12-28T07:58:21;14.65;;;4.93;;
60038;SDS011;45916;52.734;6.544;2023-12-28T08:00:46;14.60;;;4.15;;
60038;SDS011;45916;52.734;6.544;2023-12-28T08:03:12;16.85;;;4.95;;
60038;SDS011;45916;52.734;6.544;2023-12-28T08:05:40;16.67;;;4.80;;
60038;SDS011;45916;52.734;6.544;2023-12-28T08:08:06;13.93;;;4.88;;
60038;SDS011;45916;52.734;6.544;2023-12-28T08:10:32;15.88;;;4.60;;
60038;SDS011;45916;52.734;6.544;2023-12-28T08:12:58;14.95;;;4.38;;
60038;SDS011;45916;52.734;6.544;2023-12-28T08:15:24;19.63;;;4.47;;
60038;SDS011;45916;52.734;6.544;2023-12-28T08:17:49;16.77;;;4.60;;
60038;SDS011;45916;52.734;6.544;2023-12-28T08:20:15;21.85;;;6.18;;
60038;SDS011;45916;52.734;6.544;2023-12-28T08:22:41;17.80;;;5.28;;
60038;SDS011;45916;52.734;6.544;2023-12-28T08:25:07;16.98;;;4.70;;
60038;SDS011;45916;52.734;6.544;2023-12-28T08:27:33;18.60;;;4.85;;
60038;SDS011;45916;52.734;6.544;2023-12-28T08:29:58;16.73;;;4.18;;
60038;SDS011;45916;52.734;6.544;2023-12-28T08:32:24;18.02;;;5.10;;
60038;SDS011;45916;52.734;6.544;2023-12-28T08:34:50;17.17;;;4.50;;
60038;SDS011;45916;52.734;6.544;2023-12-28T08:37:16;21.65;;;6.47;;
60038;SDS011;45916;52.734;6.544;2023-12-28T08:39:41;14.88;;;4.10;;
60038;SDS011;45916;52.734;6.544;2023-12-28T08:42:07;16.58;;;6.38;;
60038;SDS011;45916;52.734;6.544;2023-12-28T08:44:33;24.85;;;5.47;;
60038;SDS011;45916;52.734;6.544;2023-12-28T08:46:59;11.95;;;4.05;;
60038;SDS011;45916;52.734;6.544;2023-12-28T08:49:24;17.48;;;5.00;;
60038;SDS011;45916;52.734;6.544;2023-12-28T08:51:50;19.55;;;5.10;;
60038;SDS011;45916;52.734;6.544;2023-12-28T08:54:16;16.55;;;5.22;;
60038;SDS011;45916;52.734;6.544;2023-12-28T08:56:42;19.95;;;5.47;;
60038;SDS011;45916;52.734;6.544;2023-12-28T08:59:08;18.20;;;5.20;;
60038;SDS011;45916;52.734;6.544;2023-12-28T09:01:34;20.88;;;5.32;;
60038;SDS011;45916;52.734;6.544;2023-12-28T09:04:00;17.02;;;4.38;;
60038;SDS011;45916;52.734;6.544;2023-12-28T09:06:26;19.73;;;4.82;;
60038;SDS011;45916;52.734;6.544;2023-12-28T09:08:52;16.23;;;5.43;;
60038;SDS011;45916;52.734;6.544;2023-12-28T09:11:18;24.10;;;5.47;;
60038;SDS011;45916;52.734;6.544;2023-12-28T09:13:45;19.17;;;5.10;;
60038;SDS011;45916;52.734;6.544;2023-12-28T09:16:11;19.67;;;5.68;;
60038;SDS011;45916;52.734;6.544;2023-12-28T09:18:38;16.30;;;5.13;;
60038;SDS011;45916;52.734;6.544;2023-12-28T09:21:05;22.25;;;5.35;;
60038;SDS011;45916;52.734;6.544;2023-12-28T09:23:32;18.00;;;4.90;;
60038;SDS011;45916;52.734;6.544;2023-12-28T09:26:00;17.10;;;4.43;;
60038;SDS011;45916;52.734;6.544;2023-12-28T09:28:26;15.47;;;4.33;;
60038;SDS011;45916;52.734;6.544;2023-12-28T09:30:52;18.88;;;4.85;;
60038;SDS011;45916;52.734;6.544;2023-12-28T09:33:18;17.50;;;4.53;;
60038;SDS011;45916;52.734;6.544;2023-12-28T09:35:44;14.07;;;4.70;;
60038;SDS011;45916;52.734;6.544;2023-12-28T09:38:10;14.60;;;4.80;;
60038;SDS011;45916;52.734;6.544;2023-12-28T09:40:35;20.90;;;5.18;;
60038;SDS011;45916;52.734;6.544;2023-12-28T09:45:50;12.93;;;4.72;;
60038;SDS011;45916;52.734;6.544;2023-12-28T09:48:17;18.90;;;4.63;;
60038;SDS011;45916;52.734;6.544;2023-12-28T09:50:45;16.90;;;4.82;;
60038;SDS011;45916;52.734;6.544;2023-12-28T09:53:14;17.50;;;5.10;;
60038;SDS011;45916;52.734;6.544;2023-12-28T09:55:39;14.15;;;5.03;;
60038;SDS011;45916;52.734;6.544;2023-12-28T09:58:05;17.52;;;4.95;;
60038;SDS011;45916;52.734;6.544;2023-12-28T10:00:32;14.82;;;4.10;;
60038;SDS011;45916;52.734;6.544;2023-12-28T10:02:58;18.52;;;5.57;;
60038;SDS011;45916;52.734;6.544;2023-12-28T10:05:23;13.60;;;5.03;;
60038;SDS011;45916;52.734;6.544;2023-12-28T10:07:49;22.25;;;5.25;;
60038;SDS011;45916;52.734;6.544;2023-12-28T10:10:15;16.08;;;5.60;;
60038;SDS011;45916;52.734;6.544;2023-12-28T10:12:42;15.52;;;4.80;;
60038;SDS011;45916;52.734;6.544;2023-12-28T10:15:08;22.08;;;5.70;;
60038;SDS011;45916;52.734;6.544;2023-12-28T10:17:35;17.83;;;5.18;;
60038;SDS011;45916;52.734;6.544;2023-12-28T10:20:01;12.95;;;4.18;;
60038;SDS011;45916;52.734;6.544;2023-12-28T10:22:30;20.00;;;5.50;;
60038;SDS011;45916;52.734;6.544;2023-12-28T10:24:57;18.80;;;4.88;;
60038;SDS011;45916;52.734;6.544;2023-12-28T10:27:24;20.27;;;5.28;;
60038;SDS011;45916;52.734;6.544;2023-12-28T10:29:54;13.73;;;4.63;;
60038;SDS011;45916;52.734;6.544;2023-12-28T10:32:21;15.00;;;4.75;;
60038;SDS011;45916;52.734;6.544;2023-12-28T10:34:49;16.63;;;5.20;;
60038;SDS011;45916;52.734;6.544;2023-12-28T10:37:18;14.25;;;4.47;;
60038;SDS011;45916;52.734;6.544;2023-12-28T10:39:46;17.52;;;4.63;;
60038;SDS011;45916;52.734;6.544;2023-12-28T10:42:14;19.17;;;5.30;;
60038;SDS011;45916;52.734;6.544;2023-12-28T10:44:49;13.90;;;5.15;;
60038;SDS011;45916;52.734;6.544;2023-12-28T10:47:20;16.58;;;5.22;;
60038;SDS011;45916;52.734;6.544;2023-12-28T10:52:18;15.68;;;5.28;;
60038;SDS011;45916;52.734;6.544;2023-12-28T10:54:55;15.75;;;4.78;;
60038;SDS011;45916;52.734;6.544;2023-12-28T10:57:33;13.05;;;4.63;;
60038;SDS011;45916;52.734;6.544;2023-12-28T11:00:11;18.45;;;4.55;;
60038;SDS011;45916;52.734;6.544;2023-12-28T11:02:47;19.88;;;5.70;;
60038;SDS011;45916;52.734;6.544;2023-12-28T11:05:17;20.42;;;5.55;;
60038;SDS011;45916;52.734;6.544;2023-12-28T11:07:45;16.42;;;5.28;;
60038;SDS011;45916;52.734;6.544;2023-12-28T11:10:26;18.88;;;5.65;;
60038;SDS011;45916;52.734;6.544;2023-12-28T11:12:56;18.48;;;5.30;;
60038;SDS011;45916;52.734;6.544;2023-12-28T11:15:23;16.83;;;5.40;;
60038;SDS011;45916;52.734;6.544;2023-12-28T11:17:51;18.63;;;4.70;;
60038;SDS011;45916;52.734;6.544;2023-12-28T11:20:17;15.05;;;4.90;;
60038;SDS011;45916;52.734;6.544;2023-12-28T11:22:43;16.48;;;4.50;;
60038;SDS011;45916;52.734;6.544;2023-12-28T11:25:16;18.85;;;5.70;;
60038;SDS011;45916;52.734;6.544;2023-12-28T11:27:43;15.82;;;4.57;;
60038;SDS011;45916;52.734;6.544;2023-12-28T11:30:12;19.13;;;5.00;;
60038;SDS011;45916;52.734;6.544;2023-12-28T11:32:42;12.25;;;4.22;;
60038;SDS011;45916;52.734;6.544;2023-12-28T11:35:10;18.30;;;4.93;;
60038;SDS011;45916;52.734;6.544;2023-12-28T11:37:40;12.35;;;4.22;;
60038;SDS011;45916;52.734;6.544;2023-12-28T11:40:10;19.10;;;5.03;;
60038;SDS011;45916;52.734;6.544;2023-12-28T11:42:37;16.65;;;4.35;;
60038;SDS011;45916;52.734;6.544;2023-12-28T11:45:16;20.60;;;4.70;;
60038;SDS011;45916;52.734;6.544;2023-12-28T11:47:45;17.77;;;4.88;;
60038;SDS011;45916;52.734;6.544;2023-12-28T11:52:37;16.98;;;6.25;;
60038;SDS011;45916;52.734;6.544;2023-12-28T11:55:03;14.30;;;4.85;;
60038;SDS011;45916;52.734;6.544;2023-12-28T11:57:30;15.30;;;4.38;;
60038;SDS011;45916;52.734;6.544;2023-12-28T12:00:00;13.13;;;4.50;;
60038;SDS011;45916;52.734;6.544;2023-12-28T12:02:27;16.25;;;4.57;;
60038;SDS011;45916;52.734;6.544;2023-12-28T12:04:53;13.43;;;4.60;;
60038;SDS011;45916;52.734;6.544;2023-12-28T12:07:20;22.63;;;5.55;;
60038;SDS011;45916;52.734;6.544;2023-12-28T12:09:46;17.25;;;5.13;;
60038;SDS011;45916;52.734;6.544;2023-12-28T12:12:11;20.65;;;5.53;;
60038;SDS011;45916;52.734;6.544;2023-12-28T12:14:37;16.83;;;5.15;;
60038;SDS011;45916;52.734;6.544;2023-12-28T12:17:04;13.50;;;4.68;;
60038;SDS011;45916;52.734;6.544;2023-12-28T12:19:30;18.60;;;4.80;;
60038;SDS011;45916;52.734;6.544;2023-12-28T12:21:57;19.48;;;4.78;;
60038;SDS011;45916;52.734;6.544;2023-12-28T12:24:23;19.00;;;5.07;;
60038;SDS011;45916;52.734;6.544;2023-12-28T12:26:49;16.40;;;4.43;;
60038;SDS011;45916;52.734;6.544;2023-12-28T12:29:16;18.75;;;4.78;;
60038;SDS011;45916;52.734;6.544;2023-12-28T12:31:42;11.90;;;4.90;;
60038;SDS011;45916;52.734;6.544;2023-12-28T12:34:10;17.57;;;5.57;;
60038;SDS011;45916;52.734;6.544;2023-12-28T12:36:36;21.98;;;5.60;;
60038;SDS011;45916;52.734;6.544;2023-12-28T12:39:03;19.13;;;5.63;;
60038;SDS011;45916;52.734;6.544;2023-12-28T12:41:34;20.70;;;5.63;;
60038;SDS011;45916;52.734;6.544;2023-12-28T12:44:00;16.73;;;5.38;;
60038;SDS011;45916;52.734;6.544;2023-12-28T12:46:26;19.20;;;5.80;;
60038;SDS011;45916;52.734;6.544;2023-12-28T12:48:56;18.65;;;5.80;;
60038;SDS011;45916;52.734;6.544;2023-12-28T12:51:23;13.20;;;3.55;;
60038;SDS011;45916;52.734;6.544;2023-12-28T12:53:58;15.27;;;4.05;;
60038;SDS011;45916;52.734;6.544;2023-12-28T12:56:28;16.60;;;4.80;;
60038;SDS011;45916;52.734;6.544;2023-12-28T12:58:54;13.93;;;5.00;;
60038;SDS011;45916;52.734;6.544;2023-12-28T13:01:21;22.20;;;6.28;;
60038;SDS011;45916;52.734;6.544;2023-12-28T13:03:48;13.75;;;4.28;;
60038;SDS011;45916;52.734;6.544;2023-12-28T13:06:15;17.55;;;5.60;;
60038;SDS011;45916;52.734;6.544;2023-12-28T13:08:41;15.35;;;5.15;;
60038;SDS011;45916;52.734;6.544;2023-12-28T13:11:07;15.25;;;5.07;;
60038;SDS011;45916;52.734;6.544;2023-12-28T13:13:33;17.50;;;5.22;;
60038;SDS011;45916;52.734;6.544;2023-12-28T13:15:59;17.75;;;4.75;;
60038;SDS011;45916;52.734;6.544;2023-12-28T13:18:25;20.00;;;5.47;;
60038;SDS011;45916;52.734;6.544;2023-12-28T13:20:52;15.40;;;6.18;;
60038;SDS011;45916;52.734;6.544;2023-12-28T13:23:18;21.02;;;5.35;;
60038;SDS011;45916;52.734;6.544;2023-12-28T13:25:44;15.57;;;5.00;;
60038;SDS011;45916;52.734;6.544;2023-12-28T13:28:10;19.02;;;5.57;;
60038;SDS011;45916;52.734;6.544;2023-12-28T13:30:35;14.45;;;5.18;;
60038;SDS011;45916;52.734;6.544;2023-12-28T13:33:05;15.93;;;5.13;;
60038;SDS011;45916;52.734;6.544;2023-12-28T13:35:31;18.40;;;5.05;;
60038;SDS011;45916;52.734;6.544;2023-12-28T13:37:58;16.67;;;5.05;;
60038;SDS011;45916;52.734;6.544;2023-12-28T13:40:26;18.17;;;4.72;;
60038;SDS011;45916;52.734;6.544;2023-12-28T13:42:52;13.82;;;5.15;;
60038;SDS011;45916;52.734;6.544;2023-12-28T13:45:18;21.35;;;5.10;;
60038;SDS011;45916;52.734;6.544;2023-12-28T13:47:44;15.80;;;4.50;;
60038;SDS011;45916;52.734;6.544;2023-12-28T13:50:09;19.13;;;5.70;;
60038;SDS011;45916;52.734;6.544;2023-12-28T13:52:35;15.90;;;5.65;;
60038;SDS011;45916;52.734;6.544;2023-12-28T13:55:01;15.18;;;5.28;;
60038;SDS011;45916;52.734;6.544;2023-12-28T13:57:27;17.23;;;5.28;;
60038;SDS011;45916;52.734;6.544;2023-12-28T13:59:53;14.77;;;5.07;;
60038;SDS011;45916;52.734;6.544;2023-12-28T14:02:19;22.38;;;5.20;;
60038;SDS011;45916;52.734;6.544;2023-12-28T14:04:46;15.48;;;5.35;;
60038;SDS011;45916;52.734;6.544;2023-12-28T14:07:12;13.18;;;4.97;;
60038;SDS011;45916;52.734;6.544;2023-12-28T14:09:38;16.95;;;5.18;;
60038;SDS011;45916;52.734;6.544;2023-12-28T14:12:03;18.20;;;5.57;;
60038;SDS011;45916;52.734;6.544;2023-12-28T14:14:29;18.40;;;6.28;;
60038;SDS011;45916;52.734;6.544;2023-12-28T14:16:55;14.65;;;4.95;;
60038;SDS011;45916;52.734;6.544;2023-12-28T14:19:21;17.80;;;4.80;;
60038;SDS011;45916;52.734;6.544;2023-12-28T14:21:46;14.48;;;5.80;;
60038;SDS011;45916;52.734;6.544;2023-12-28T14:24:12;14.00;;;4.45;;
60038;SDS011;45916;52.734;6.544;2023-12-28T14:26:40;20.85;;;5.55;;
60038;SDS011;45916;52.734;6.544;2023-12-28T14:29:08;17.27;;;4.97;;
60038;SDS011;45916;52.734;6.544;2023-12-28T14:31:34;14.68;;;4.07;;
60038;SDS011;45916;52.734;6.544;2023-12-28T14:34:00;12.98;;;3.67;;
60038;SDS011;45916;52.734;6.544;2023-12-28T14:36:31;18.20;;;5.50;;
60038;SDS011;45916;52.734;6.544;2023-12-28T14:38:59;16.23;;;5.45;;
60038;SDS011;45916;52.734;6.544;2023-12-28T14:41:26;13.82;;;4.72;;
60038;SDS011;45916;52.734;6.544;2023-12-28T14:43:52;17.95;;;5.28;;